Time;durP1;ratioP1;P1;durP2;ratioP2;P2;SDS_P1;SDS_P2;PMS_P1;PMS_P2;Temp;Humidity;BMP_temperature;BMP_pressure;BME280_temperature;BME280_humidity;BME280_pressure;Samples;Min_cycle;Max_cycle;Signal;HPM_P1;HPM_P2
2022/06/23 00:00:08;;;;;;;12.45;9.70;;;;;;;15.24;90.92;101197.31;1050107;28;20127;-78
2022/06/23 00:00:40;;;;;;;16.58;10.55;;;;;;;15.27;91.33;101199.53;1046403;28;20052;-78
2022/06/23 00:01:23;;;;;;;13.48;9.15;;;;;;;15.09;90.92;101195.97;1049080;28;20037;-78
2022/06/23 00:02:03;;;;;;;10.85;9.73;;;;;;;15.17;91.15;101202.00;1054321;28;20481;-78
2022/06/23 00:02:35;;;;;;;12.93;9.30;;;;;;;15.08;90.59;101193.53;1059731;27;20160;-78
2022/06/23 00:03:07;;;;;;;14.05;9.98;;;;;;;15.23;90.17;101196.50;1057009;27;20571;-78
2022/06/23 00:03:39;;;;;;;13.25;10.15;;;;;;;15.24;90.96;101203.50;1056335;27;20051;-78
2022/06/23 00:04:17;;;;;;;15.70;10.00;;;;;;;15.27;90.76;101196.84;1056844;27;20042;-78
2022/06/23 00:04:51;;;;;;;15.02;10.52;;;;;;;15.26;90.78;101200.59;1059255;27;20040;-78
2022/06/23 00:05:24;;;;;;;11.65;9.52;;;;;;;15.17;91.04;101191.28;1061946;27;20040;-78
2022/06/23 00:05:58;;;;;;;14.20;10.20;;;;;;;15.14;91.18;101201.44;1060803;27;20039;-78
2022/06/23 00:06:47;;;;;;;13.20;9.55;;;;;;;15.17;91.02;101199.34;1056756;28;20043;-78
2022/06/23 00:07:25;;;;;;;16.08;10.45;;;;;;;15.12;91.22;101202.72;1061102;27;20047;-78
2022/06/23 00:08:00;;;;;;;13.10;10.32;;;;;;;15.17;91.63;101196.66;1065236;27;20038;-78
2022/06/23 00:08:42;;;;;;;18.67;10.48;;;;;;;15.17;91.52;101200.16;1064187;27;20030;-78
2022/06/23 00:09:37;;;;;;;15.68;9.80;;;;;;;15.08;91.85;101194.34;1060795;27;20039;-78
2022/06/23 00:10:20;;;;;;;13.45;9.73;;;;;;;15.08;91.14;101193.53;1064537;27;20035;-78
2022/06/23 00:10:57;;;;;;;16.15;9.48;;;;;;;15.08;91.27;101188.16;1056433;28;20047;-78
2022/06/23 00:11:29;;;;;;;12.38;9.55;;;;;;;15.07;90.89;101182.00;1052239;28;20126;-77
2022/06/23 00:12:17;;;;;;;13.68;9.95;;;;;;;15.14;91.72;101184.53;1054341;28;20397;-78
2022/06/23 00:12:49;;;;;;;15.50;10.32;;;;;;;15.12;91.52;101184.75;1061971;27;20524;-78
2022/06/23 00:13:41;;;;;;;15.00;10.13;;;;;;;15.10;91.84;101180.69;1065295;27;20043;-78
2022/06/23 00:14:14;;;;;;;18.45;10.80;;;;;;;15.09;91.58;101181.75;1064417;27;20049;-78
2022/06/23 00:14:51;;;;;;;15.80;9.77;;;;;;;15.08;92.17;101180.13;1060861;27;20046;-77
2022/06/23 00:15:36;;;;;;;11.15;10.02;;;;;;;15.07;91.92;101176.63;1063534;27;20428;-77
2022/06/23 00:16:21;;;;;;;15.35;10.40;;;;;;;15.09;92.32;101174.50;1056859;27;20055;-78
2022/06/23 00:16:53;;;;;;;15.20;11.32;;;;;;;15.06;91.99;101174.97;1062798;27;20043;-78
2022/06/23 00:17:36;;;;;;;15.38;12.30;;;;;;;15.05;92.47;101167.97;1060813;27;20062;-77
2022/06/23 00:18:19;;;;;;;13.60;11.38;;;;;;;15.03;92.06;101169.25;1056700;28;20405;-78
2022/06/23 00:18:51;;;;;;;17.27;11.48;;;;;;;14.98;92.39;101178.03;1059106;27;20047;-78
2022/06/23 00:19:23;;;;;;;14.10;11.75;;;;;;;15.06;92.17;101172.28;1060949;27;20054;-80
2022/06/23 00:19:58;;;;;;;17.15;11.73;;;;;;;15.04;92.82;101174.38;1062216;27;20408;-78
2022/06/23 00:20:36;;;;;;;17.85;11.77;;;;;;;15.06;93.11;101174.97;1060557;27;20047;-78
2022/06/23 00:21:23;;;;;;;16.55;11.18;;;;;;;15.08;92.88;101177.44;1052030;28;20457;-78
2022/06/23 00:21:54;;;;;;;16.52;11.00;;;;;;;15.09;92.93;101174.50;1049790;28;20052;-78
2022/06/23 00:22:29;;;;;;;21.70;10.85;;;;;;;15.00;92.89;101173.22;1051513;28;20036;-78
2022/06/23 00:23:05;;;;;;;17.45;10.48;;;;;;;15.05;92.90;101173.34;1050670;28;20517;-78
2022/06/23 00:23:41;;;;;;;19.85;12.35;;;;;;;15.08;92.79;101167.53;1054107;28;20047;-78
2022/06/23 00:24:19;;;;;;;15.75;11.32;;;;;;;15.14;92.84;101171.94;1056903;27;20044;-78
2022/06/23 00:24:56;;;;;;;19.05;11.88;;;;;;;15.07;92.95;101167.75;1059351;27;20508;-78
2022/06/23 00:25:54;;;;;;;14.65;12.07;;;;;;;15.12;92.66;101168.66;1063883;27;20035;-77
2022/06/23 00:26:33;;;;;;;13.98;11.35;;;;;;;15.13;92.89;101167.63;1062938;27;20037;-77
2022/06/23 00:27:05;;;;;;;16.33;10.95;;;;;;;15.07;92.41;101170.44;1061104;27;20113;-78
2022/06/23 00:27:39;;;;;;;15.23;11.25;;;;;;;15.03;92.77;101164.72;1060599;27;20070;-78
2022/06/23 00:28:14;;;;;;;21.88;11.57;;;;;;;15.10;93.10;101170.78;1059350;27;20043;-78
2022/06/23 00:28:52;;;;;;;14.48;11.32;;;;;;;14.98;93.00;101172.66;1060487;27;20062;-78
2022/06/23 00:29:23;;;;;;;15.43;11.32;;;;;;;14.99;92.78;101174.28;1058642;27;20031;-80
2022/06/23 00:30:02;;;;;;;18.65;12.00;;;;;;;15.00;93.02;101177.78;1062744;27;20466;-80
2022/06/23 00:30:41;;;;;;;19.73;12.15;;;;;;;15.14;93.20;101173.78;1060845;27;20511;-80
2022/06/23 00:31:37;;;;;;;16.30;11.48;;;;;;;15.12;92.37;101182.09;1059063;27;20036;-78
2022/06/23 00:32:09;;;;;;;15.95;11.35;;;;;;;15.07;92.82;101179.31;1052482;28;20032;-78
2022/06/23 00:32:41;;;;;;;15.23;11.15;;;;;;;15.09;93.11;101177.19;1050957;28;20040;-77
2022/06/23 00:33:28;;;;;;;20.90;12.60;;;;;;;15.19;93.00;101178.44;1054582;28;20036;-77
2022/06/23 00:34:03;;;;;;;17.77;11.02;;;;;;;15.17;92.24;101180.56;1054854;27;20059;-77
2022/06/23 00:34:40;;;;;;;16.52;11.15;;;;;;;15.11;92.72;101180.47;1060619;27;20043;-77
2022/06/23 00:35:14;;;;;;;13.25;10.77;;;;;;;15.21;92.76;101173.66;1056252;27;20035;-77
2022/06/23 00:35:48;;;;;;;14.18;11.48;;;;;;;15.23;92.63;101174.22;1050596;28;20402;-77
2022/06/23 00:36:41;;;;;;;16.90;10.73;;;;;;;15.22;92.49;101175.28;1048411;28;20045;-77
2022/06/23 00:37:17;;;;;;;13.32;11.02;;;;;;;15.17;92.74;101164.44;1048068;28;20040;-77
2022/06/23 00:37:51;;;;;;;17.15;12.00;;;;;;;15.17;92.19;101175.19;1054048;28;20083;-78
2022/06/23 00:38:31;;;;;;;15.25;11.40;;;;;;;15.10;92.92;101176.16;1060558;27;20035;-77
2022/06/23 00:39:05;;;;;;;15.88;10.60;;;;;;;15.13;92.46;101174.84;1056428;28;20035;-77
2022/06/23 00:39:41;;;;;;;17.63;11.57;;;;;;;15.17;92.61;101167.13;1054297;28;20051;-78
2022/06/23 00:40:14;;;;;;;14.02;12.55;;;;;;;15.15;92.71;101172.75;1060465;27;20035;-77
2022/06/23 00:40:46;;;;;;;17.55;11.82;;;;;;;15.13;92.24;101180.22;1059879;27;20144;-78
2022/06/23 00:41:23;;;;;;;14.73;12.02;;;;;;;15.13;92.42;101167.63;1059653;27;20050;-78
2022/06/23 00:41:55;;;;;;;15.80;11.23;;;;;;;15.19;92.15;101173.06;1060569;27;20432;-78
2022/06/23 00:42:29;;;;;;;13.60;11.40;;;;;;;15.15;92.64;101178.91;1055975;28;20585;-78
2022/06/23 00:43:03;;;;;;;14.13;12.32;;;;;;;15.14;92.18;101177.28;1057786;27;20376;-78
2022/06/23 00:43:35;;;;;;;16.23;11.77;;;;;;;14.96;92.78;101180.13;1054419;28;20744;-78
2022/06/23 00:44:18;;;;;;;17.05;11.85;;;;;;;15.04;92.23;101177.06;1050099;28;20056;-78
2022/06/23 00:45:06;;;;;;;14.88;11.15;;;;;;;15.07;92.57;101176.63;1051868;28;20036;-78
2022/06/23 00:45:43;;;;;;;21.77;10.95;;;;;;;15.08;92.65;101172.88;1056308;28;20058;-78
2022/06/23 00:46:23;;;;;;;17.00;12.48;;;;;;;15.10;92.57;101170.78;1055948;28;20039;-78
2022/06/23 00:46:58;;;;;;;14.90;12.20;;;;;;;15.06;92.66;101174.97;1053859;28;20158;-78
2022/06/23 00:47:42;;;;;;;16.73;13.63;;;;;;;15.04;92.14;101171.69;1051521;28;20040;-78
2022/06/23 00:48:25;;;;;;;19.00;12.15;;;;;;;14.86;92.42;101174.56;1055164;28;20039;-78
2022/06/23 00:49:02;;;;;;;23.80;14.05;;;;;;;14.88;92.77;101172.47;1050481;28;20494;-78
2022/06/23 00:49:40;;;;;;;21.27;13.00;;;;;;;14.94;93.02;101179.56;1052486;28;20398;-78
2022/06/23 00:50:18;;;;;;;16.77;12.05;;;;;;;14.92;93.29;101178.97;1048071;28;20051;-78
2022/06/23 00:51:05;;;;;;;25.27;12.55;;;;;;;14.92;93.26;101181.66;1053065;28;20170;-78
2022/06/23 00:51:42;;;;;;;15.48;12.27;;;;;;;14.89;92.99;101179.44;1060401;27;20047;-78
2022/06/23 00:52:31;;;;;;;14.65;12.23;;;;;;;14.89;93.05;101184.81;1060493;27;20042;-78
2022/06/23 00:53:18;;;;;;;14.65;11.95;;;;;;;14.89;93.09;101179.44;1048023;28;20084;-78
2022/06/23 00:54:01;;;;;;;15.32;12.00;;;;;;;14.93;93.93;101180.59;1051856;28;20040;-78
2022/06/23 00:54:37;;;;;;;26.88;12.90;;;;;;;14.92;93.71;101183.53;1047587;28;20043;-78
2022/06/23 00:55:31;;;;;;;15.13;12.18;;;;;;;14.87;93.53;101175.38;1051473;28;20036;-78
2022/06/23 00:56:27;;;;;;;17.17;12.55;;;;;;;14.87;93.63;101184.25;1055952;28;20404;-78
2022/06/23 00:57:20;;;;;;;14.85;13.15;;;;;;;14.82;93.84;101178.78;1054648;27;20048;-78
2022/06/23 00:57:59;;;;;;;14.20;11.95;;;;;;;14.78;94.01;101182.94;1059024;27;20046;-78
2022/06/23 00:58:30;;;;;;;18.55;12.70;;;;;;;14.79;93.45;101184.59;1054788;28;20047;-78
2022/06/23 00:59:19;;;;;;;25.60;12.35;;;;;;;14.80;93.80;101181.69;1060680;27;20055;-78
2022/06/23 01:00:17;;;;;;;20.50;12.80;;;;;;;14.81;93.79;101177.16;1063063;27;20083;-78
2022/06/23 01:00:52;;;;;;;21.00;12.70;;;;;;;14.87;94.06;101172.69;1063166;27;20034;-78
2022/06/23 01:02:00;;;;;;;15.77;12.45;;;;;;;14.85;93.98;101183.66;1059135;27;20050;-78
2022/06/23 01:02:39;;;;;;;14.35;11.70;;;;;;;14.81;93.86;101182.50;1049592;28;20045;-78
2022/06/23 01:03:15;;;;;;;13.07;11.35;;;;;;;14.77;93.57;101173.28;1052118;28;20556;-78
2022/06/23 01:04:00;;;;;;;17.60;12.68;;;;;;;14.76;94.01;101180.50;1059293;27;20393;-78
2022/06/23 01:04:41;;;;;;;18.65;12.07;;;;;;;14.68;93.85;101180.06;1063868;27;20039;-77
2022/06/23 01:05:19;;;;;;;20.58;12.18;;;;;;;14.77;93.95;101181.31;1060615;27;20031;-78
2022/06/23 01:06:06;;;;;;;20.85;11.98;;;;;;;14.75;94.04;101181.56;1056258;28;20710;-78
2022/06/23 01:06:53;;;;;;;16.15;12.07;;;;;;;14.70;93.98;101176.09;1052118;28;20091;-78
2022/06/23 01:07:46;;;;;;;15.68;12.00;;;;;;;14.72;93.93;101179.34;1051447;28;20548;-78
2022/06/23 01:08:29;;;;;;;19.10;12.60;;;;;;;14.72;94.17;101184.72;1058678;27;20031;-78
2022/06/23 01:09:22;;;;;;;18.88;14.45;;;;;;;14.71;94.07;101182.25;1060671;27;20420;-78
2022/06/23 01:10:17;;;;;;;17.13;11.80;;;;;;;14.62;93.95;101183.69;1059050;27;20714;-78
2022/06/23 01:10:53;;;;;;;14.25;11.05;;;;;;;14.62;93.91;101181.81;1061039;27;20035;-78
2022/06/23 01:11:29;;;;;;;15.18;12.00;;;;;;;14.59;93.79;101184.16;1065047;27;20299;-78
2022/06/23 01:12:05;;;;;;;15.10;11.00;;;;;;;14.58;93.59;101177.16;1062194;27;20440;-78
2022/06/23 01:12:48;;;;;;;16.35;12.05;;;;;;;14.63;94.51;101171.91;1057858;27;20082;-78
2022/06/23 01:13:30;;;;;;;17.38;10.93;;;;;;;14.60;93.96;101172.38;1056298;28;20290;-78
2022/06/23 01:14:22;;;;;;;21.52;11.10;;;;;;;14.60;94.29;101175.06;1052204;28;20455;-78
2022/06/23 01:14:57;;;;;;;15.85;12.05;;;;;;;14.50;94.28;101171.09;1048772;28;20056;-78
2022/06/23 01:15:38;;;;;;;17.98;12.70;;;;;;;14.48;94.36;101167.00;1054699;28;20040;-78
2022/06/23 01:16:14;;;;;;;18.33;11.82;;;;;;;14.56;94.69;101169.34;1052147;28;20433;-78
2022/06/23 01:16:53;;;;;;;16.38;12.93;;;;;;;14.57;94.24;101167.50;1057159;27;20032;-78
2022/06/23 01:17:31;;;;;;;18.58;12.88;;;;;;;14.52;93.79;101174.38;1059471;27;20039;-78
2022/06/23 01:18:13;;;;;;;18.40;12.35;;;;;;;14.48;93.77;101175.88;1065010;27;20462;-78
2022/06/23 01:19:17;;;;;;;17.05;13.75;;;;;;;14.44;94.38;101174.72;1057940;27;20043;-78
2022/06/23 01:20:00;;;;;;;16.73;12.85;;;;;;;14.46;93.92;101175.28;1046968;28;20047;-78
2022/06/23 01:20:45;;;;;;;15.52;11.45;;;;;;;14.41;94.12;101177.81;1044867;28;20133;-78
2022/06/23 01:21:40;;;;;;;18.20;13.38;;;;;;;14.44;94.22;101176.56;1053486;28;20282;-78
2022/06/23 01:22:24;;;;;;;14.02;11.48;;;;;;;14.50;94.08;101175.63;1058758;27;20734;-78
2022/06/23 01:23:04;;;;;;;15.07;11.93;;;;;;;14.44;93.92;101174.72;1060847;27;20297;-78
2022/06/23 01:24:07;;;;;;;13.77;12.13;;;;;;;14.37;93.86;101176.66;1057054;27;20196;-78
2022/06/23 01:25:07;;;;;;;18.63;12.82;;;;;;;14.35;93.96;101172.59;1041225;28;20056;-78
2022/06/23 01:25:52;;;;;;;12.82;10.63;;;;;;;14.35;94.14;101172.59;1044929;27;20068;-78
2022/06/23 01:26:55;;;;;;;19.00;12.75;;;;;;;14.36;94.34;101167.00;1062809;27;20303;-78
2022/06/23 01:28:02;;;;;;;13.23;11.43;;;;;;;14.33;94.33;101174.69;1063376;27;20323;-78
2022/06/23 01:28:38;;;;;;;20.48;11.68;;;;;;;14.27;94.95;101173.75;1056314;27;20414;-78
2022/06/23 01:29:15;;;;;;;15.25;11.82;;;;;;;14.30;94.75;101165.25;1051876;28;20302;-77
2022/06/23 01:29:53;;;;;;;18.48;12.93;;;;;;;14.30;94.61;101167.94;1051960;28;20043;-78
2022/06/23 01:30:28;;;;;;;20.27;13.55;;;;;;;14.30;95.14;101165.25;1050413;28;20397;-78
2022/06/23 01:31:07;;;;;;;17.92;13.00;;;;;;;14.31;94.56;101168.75;1048624;28;20120;-78
2022/06/23 01:31:46;;;;;;;18.73;12.55;;;;;;;14.32;94.74;101173.06;1048029;28;20040;-78
2022/06/23 01:32:21;;;;;;;16.13;12.38;;;;;;;14.20;94.75;101170.34;1046253;28;20044;-78
2022/06/23 01:33:07;;;;;;;18.65;12.90;;;;;;;14.23;94.82;101175.25;1050965;28;20451;-78
2022/06/23 01:33:38;;;;;;;16.55;12.88;;;;;;;14.23;94.87;101169.88;1055513;28;20504;-77
2022/06/23 01:34:19;;;;;;;17.25;13.88;;;;;;;14.19;95.21;101168.72;1058035;27;20211;-78
2022/06/23 01:34:55;;;;;;;17.13;12.52;;;;;;;14.27;95.47;101164.91;1063202;27;20069;-77
2022/06/23 01:35:30;;;;;;;13.23;11.80;;;;;;;14.29;95.47;101160.13;1056072;28;20054;-78
2022/06/23 01:36:04;;;;;;;21.13;13.90;;;;;;;14.22;95.01;101173.63;1059229;27;20779;-78
2022/06/23 01:36:40;;;;;;;16.67;12.35;;;;;;;14.24;95.80;101163.47;1061547;27;20312;-78
2022/06/23 01:38:03;;;;;;;16.98;12.55;;;;;;;14.15;95.08;101167.56;1054684;28;20368;-77
2022/06/23 01:38:47;;;;;;;15.55;11.68;;;;;;;14.11;95.10;101161.03;1050118;28;20301;-78
2022/06/23 01:39:24;;;;;;;18.65;12.88;;;;;;;14.07;95.55;101162.56;1051624;28;20508;-77
2022/06/23 01:40:06;;;;;;;15.88;11.88;;;;;;;14.04;95.03;101160.34;1057685;27;20304;-77
2022/06/23 01:40:45;;;;;;;20.10;13.23;;;;;;;14.12;95.89;101160.81;1057687;27;20308;-78
2022/06/23 01:41:23;;;;;;;19.55;13.52;;;;;;;14.13;95.52;101165.13;1061713;27;20300;-78
2022/06/23 01:42:01;;;;;;;19.60;12.48;;;;;;;14.18;95.65;101161.72;1061862;27;20300;-78
2022/06/23 01:43:01;;;;;;;17.85;12.85;;;;;;;14.15;96.15;101157.66;1060250;27;20351;-78
2022/06/23 01:43:37;;;;;;;22.08;13.50;;;;;;;14.17;95.44;101158.25;1056121;28;20300;-78
2022/06/23 01:44:18;;;;;;;16.30;13.10;;;;;;;14.18;95.49;101162.56;1056030;27;20297;-78
2022/06/23 01:44:55;;;;;;;21.90;12.70;;;;;;;14.20;95.44;101149.72;1052139;28;20298;-78
2022/06/23 01:45:35;;;;;;;14.35;12.82;;;;;;;14.21;95.23;101156.72;1055682;28;20051;-78
2022/06/23 01:46:21;;;;;;;15.23;13.73;;;;;;;14.18;94.87;101156.38;1055725;28;20071;-78
2022/06/23 01:46:55;;;;;;;15.23;12.52;;;;;;;14.14;94.78;101150.66;1051850;28;20047;-78
2022/06/23 01:47:30;;;;;;;21.33;13.73;;;;;;;14.14;94.84;101160.56;1056027;28;20299;-78
2022/06/23 01:49:12;;;;;;;15.20;12.30;;;;;;;14.27;95.56;101162.22;1060163;27;20051;-78
2022/06/23 01:49:45;;;;;;;13.77;12.23;;;;;;;14.23;94.78;101161.84;1060921;27;20385;-78
2022/06/23 01:50:32;;;;;;;20.35;12.75;;;;;;;14.29;95.01;101163.63;1064699;27;20303;-78
2022/06/23 01:51:03;;;;;;;21.10;13.38;;;;;;;14.25;94.56;101157.09;1056107;28;20040;-78
2022/06/23 01:51:35;;;;;;;20.15;13.45;;;;;;;14.25;94.82;101146.38;1052150;28;20040;-78
2022/06/23 01:52:12;;;;;;;16.73;11.95;;;;;;;14.31;95.33;101161.53;1052088;28;20040;-78
2022/06/23 01:52:47;;;;;;;17.55;14.00;;;;;;;14.29;93.99;101155.59;1049158;28;20487;-78
2022/06/23 01:53:26;;;;;;;15.13;11.85;;;;;;;14.22;94.11;101153.00;1053358;28;20047;-78
2022/06/23 01:54:21;;;;;;;18.33;12.50;;;;;;;14.19;94.33;101148.09;1053566;28;20105;-78
2022/06/23 01:55:01;;;;;;;17.90;11.18;;;;;;;14.18;95.10;101145.66;1050197;28;20048;-78
2022/06/23 01:55:43;;;;;;;13.25;11.43;;;;;;;14.03;94.13;101150.66;1059886;27;20654;-78
2022/06/23 01:56:20;;;;;;;12.98;11.35;;;;;;;13.87;94.82;101152.97;1060510;27;20072;-78
2022/06/23 01:57:08;;;;;;;13.15;10.70;;;;;;;14.04;94.45;101152.31;1060496;27;20092;-78
2022/06/23 01:57:46;;;;;;;26.83;11.68;;;;;;;13.95;94.94;101151.00;1055402;28;20305;-78
2022/06/23 01:58:19;;;;;;;16.95;13.00;;;;;;;13.70;94.85;101154.69;1051805;28;20313;-78
2022/06/23 01:59:02;;;;;;;13.88;11.35;;;;;;;13.97;95.40;101159.59;1050124;28;20294;-78
2022/06/23 01:59:45;;;;;;;20.60;11.75;;;;;;;14.05;95.13;101152.06;1054632;28;20036;-78
2022/06/23 02:00:19;;;;;;;13.93;12.07;;;;;;;14.04;95.25;101158.47;1057898;27;20543;-78
2022/06/23 02:00:55;;;;;;;16.58;12.38;;;;;;;13.99;95.14;101154.88;1060455;27;20296;-77
2022/06/23 02:01:51;;;;;;;19.35;11.95;;;;;;;14.16;95.11;101153.94;1052665;28;20028;-78
2022/06/23 02:02:52;;;;;;;16.10;12.43;;;;;;;14.06;94.42;101156.38;1052017;28;20040;-78
2022/06/23 02:03:29;;;;;;;12.98;11.27;;;;;;;13.92;94.21;101149.59;1063013;27;20042;-78
2022/06/23 02:04:09;;;;;;;16.70;11.63;;;;;;;13.92;94.34;101150.41;1062031;27;20039;-78
2022/06/23 02:04:49;;;;;;;;;;;;;;;13.96;94.10;101153.44;1060880;27;20039;-78
2022/06/23 02:05:54;;;;;;;16.45;11.90;;;;;;;13.97;94.75;101148.91;1058422;28;19920;-78
2022/06/23 02:06:30;;;;;;;13.38;11.85;;;;;;;13.89;93.99;101153.53;1055568;28;20401;-78
2022/06/23 02:07:24;;;;;;;15.50;11.45;;;;;;;13.91;94.27;101145.28;1061359;27;20540;-78
2022/06/23 02:08:07;;;;;;;16.27;9.75;;;;;;;13.86;94.75;101153.19;1062179;27;20050;-78
2022/06/23 02:08:47;;;;;;;12.38;10.75;;;;;;;14.14;93.51;101145.31;1060174;27;20054;-78
2022/06/23 02:09:29;;;;;;;17.05;11.00;;;;;;;14.18;93.79;101146.47;1059287;27;20043;-78
2022/06/23 02:10:22;;;;;;;18.85;11.55;;;;;;;14.13;93.66;101148.22;1057266;27;20504;-78
2022/06/23 02:11:28;;;;;;;12.18;10.65;;;;;;;14.06;93.99;101147.53;1058202;27;20345;-77
2022/06/23 02:12:00;;;;;;;17.65;11.82;;;;;;;14.17;93.99;101138.66;1062744;27;20296;-78
2022/06/23 02:12:50;;;;;;;14.57;11.07;;;;;;;13.87;94.08;101147.59;1050996;28;20044;-78
2022/06/23 02:13:26;;;;;;;13.60;10.70;;;;;;;14.07;94.32;101149.16;1050499;28;20304;-78
2022/06/23 02:14:11;;;;;;;18.17;11.38;;;;;;;14.21;94.29;101151.38;1051692;28;20040;-78
2022/06/23 02:15:15;;;;;;;14.60;11.50;;;;;;;13.79;94.24;101149.81;1060194;27;20054;-78
2022/06/23 02:15:51;;;;;;;16.55;10.15;;;;;;;14.12;93.80;101157.31;1058470;28;20654;-77
2022/06/23 02:16:32;;;;;;;17.80;11.35;;;;;;;13.85;94.71;101154.25;1057230;28;20044;-78
2022/06/23 02:17:21;;;;;;;14.65;11.00;;;;;;;13.72;95.05;101157.13;1056325;28;20040;-78
2022/06/23 02:18:18;;;;;;;17.38;10.73;;;;;;;14.03;95.26;101159.53;1059503;27;20039;-78
2022/06/23 02:19:00;;;;;;;13.23;10.50;;;;;;;14.20;94.61;101156.97;1055410;28;20106;-78
2022/06/23 02:19:38;;;;;;;13.82;11.18;;;;;;;14.18;93.79;101145.66;1057275;28;20044;-78
2022/06/23 02:20:43;;;;;;;20.83;11.60;;;;;;;14.14;93.83;101149.84;1052024;28;20774;-78
2022/06/23 02:21:21;;;;;;;13.95;10.15;;;;;;;14.11;93.22;101150.31;1056066;28;20036;-78
2022/06/23 02:22:05;;;;;;;14.90;11.02;;;;;;;14.12;93.85;101149.28;1054853;28;20538;-78
2022/06/23 02:22:40;;;;;;;14.77;11.40;;;;;;;14.07;93.89;101149.16;1055840;28;20301;-78
2022/06/23 02:23:22;;;;;;;16.75;10.93;;;;;;;13.86;93.68;101148.66;1058811;28;20308;-78
2022/06/23 02:24:27;;;;;;;15.45;10.38;;;;;;;13.90;94.18;101155.19;1058772;27;20285;-78
2022/06/23 02:25:10;;;;;;;20.55;10.18;;;;;;;13.77;93.94;101150.03;1056456;28;20048;-78
2022/06/23 02:25:56;;;;;;;16.33;10.02;;;;;;;13.53;93.71;101148.34;1057272;28;20127;-78
2022/06/23 02:26:46;;;;;;;12.40;10.60;;;;;;;13.56;94.54;101153.25;1058268;28;20039;-78
2022/06/23 02:27:41;;;;;;;14.80;10.77;;;;;;;13.73;94.58;101154.22;1056629;27;20043;-78
2022/06/23 02:28:27;;;;;;;15.70;9.82;;;;;;;13.60;94.26;101143.69;1054965;28;20047;-78
2022/06/23 02:29:15;;;;;;;12.45;9.70;;;;;;;13.58;94.25;101145.78;1049302;28;20047;-78
2022/06/23 02:29:50;;;;;;;13.55;9.93;;;;;;;13.71;93.90;101148.28;1046644;28;20044;-78
2022/06/23 02:30:32;;;;;;;15.60;10.15;;;;;;;13.59;93.88;101147.44;1047620;28;20056;-78
2022/06/23 02:31:12;;;;;;;16.30;10.65;;;;;;;13.93;93.70;101138.66;1059971;28;20043;-78
2022/06/23 02:32:13;;;;;;;16.98;10.52;;;;;;;14.05;93.91;101137.84;1059421;27;20038;-78
2022/06/23 02:33:04;;;;;;;13.38;9.77;;;;;;;14.03;93.31;101137.28;1053262;28;20039;-78
2022/06/23 02:33:44;;;;;;;15.45;11.57;;;;;;;13.99;93.44;101141.47;1058805;28;20054;-78
2022/06/23 02:34:31;;;;;;;12.88;10.65;;;;;;;13.96;93.22;101140.03;1055921;28;20063;-77
2022/06/23 02:35:31;;;;;;;16.70;11.23;;;;;;;13.97;93.44;101146.22;1058128;28;20031;-77
2022/06/23 02:36:02;;;;;;;17.77;11.38;;;;;;;13.97;93.49;101132.81;1056328;28;20755;-77
2022/06/23 02:36:52;;;;;;;16.02;11.18;;;;;;;13.95;93.90;101134.91;1060226;28;20031;-77
2022/06/23 02:38:20;;;;;;;13.68;10.52;;;;;;;13.93;93.95;101140.50;1059620;28;20035;-77
2022/06/23 02:39:02;;;;;;;17.55;10.57;;;;;;;14.01;93.78;101140.19;1043200;28;20049;-77
2022/06/23 02:39:43;;;;;;;14.57;11.60;;;;;;;13.93;93.78;101137.84;1051609;28;20043;-78
2022/06/23 02:40:38;;;;;;;14.32;10.70;;;;;;;13.93;94.32;101138.66;1046083;28;20309;-77
2022/06/23 02:41:38;;;;;;;14.27;10.15;;;;;;;14.01;94.13;101134.03;1052106;27;20665;-77
2022/06/23 02:42:34;;;;;;;22.77;11.93;;;;;;;13.93;94.33;101133.28;1058613;27;20289;-78
2022/06/23 02:43:10;;;;;;;20.75;12.07;;;;;;;13.97;94.29;101132.81;1064961;27;20318;-78
2022/06/23 02:43:45;;;;;;;15.73;10.85;;;;;;;14.00;94.28;101127.03;1063238;27;20354;-77
2022/06/23 02:44:19;;;;;;;15.90;11.38;;;;;;;14.01;94.64;101132.16;1061108;27;20311;-78
2022/06/23 02:45:26;;;;;;;12.85;11.23;;;;;;;13.96;94.08;101132.00;1064499;27;20542;-77
2022/06/23 02:46:01;;;;;;;15.55;11.63;;;;;;;13.87;94.81;101128.88;1058573;27;20715;-77
2022/06/23 02:46:54;;;;;;;12.80;10.50;;;;;;;13.81;94.90;101129.78;1059996;27;20311;-77
2022/06/23 02:47:31;;;;;;;13.20;10.75;;;;;;;13.89;95.05;101124.09;1060080;27;20296;-77
2022/06/23 02:48:14;;;;;;;20.90;12.38;;;;;;;13.94;94.90;101123.38;1061254;27;20031;-77
2022/06/23 02:48:57;;;;;;;18.40;11.70;;;;;;;13.99;95.59;101125.41;1060675;27;20292;-77
2022/06/23 02:49:41;;;;;;;15.68;10.82;;;;;;;14.00;94.29;101127.03;1063219;27;20284;-77
2022/06/23 02:50:20;;;;;;;16.83;11.95;;;;;;;13.95;94.75;101119.66;1064557;27;20303;-77
2022/06/23 02:51:00;;;;;;;14.70;10.82;;;;;;;13.99;94.55;101128.06;1062123;27;20376;-77
2022/06/23 02:51:46;;;;;;;18.80;11.52;;;;;;;14.01;94.65;101129.47;1061036;27;20289;-77
2022/06/23 02:52:48;;;;;;;11.35;9.98;;;;;;;13.96;94.70;101120.47;1062604;27;20047;-78
2022/06/23 02:53:26;;;;;;;16.55;11.75;;;;;;;13.89;94.02;101124.09;1060021;27;20810;-77
2022/06/23 02:54:19;;;;;;;12.55;11.15;;;;;;;13.89;94.28;101116.06;1060479;27;20296;-77
2022/06/23 02:55:09;;;;;;;14.80;11.13;;;;;;;13.86;95.21;101127.22;1063515;27;20050;-78
2022/06/23 02:56:16;;;;;;;14.82;11.50;;;;;;;13.90;94.69;101117.69;1064499;27;20306;-78
2022/06/23 02:56:59;;;;;;;20.17;12.13;;;;;;;13.91;94.90;101113.97;1062852;27;20383;-78
2022/06/23 02:57:49;;;;;;;19.33;12.15;;;;;;;13.90;94.30;101117.69;1055908;28;20293;-77
2022/06/23 02:58:32;;;;;;;15.18;11.07;;;;;;;13.92;94.57;101118.28;1056006;28;20763;-78
2022/06/23 02:59:07;;;;;;;15.27;11.10;;;;;;;13.86;94.35;101119.19;1060100;28;20300;-78
2022/06/23 02:59:38;;;;;;;19.67;11.30;;;;;;;13.82;94.53;101120.72;1060170;27;20298;-78
2022/06/23 03:00:27;;;;;;;16.92;11.75;;;;;;;13.77;94.80;101123.28;1060579;27;20031;-78
2022/06/23 03:01:06;;;;;;;17.30;11.80;;;;;;;13.84;94.53;101118.63;1060188;27;20301;-78
2022/06/23 03:01:46;;;;;;;15.90;12.10;;;;;;;13.86;95.00;101119.19;1060106;27;20289;-78
2022/06/23 03:02:20;;;;;;;21.75;11.88;;;;;;;13.90;95.48;101117.69;1057603;28;20294;-78
2022/06/23 03:03:14;;;;;;;14.10;11.80;;;;;;;13.91;94.40;101113.97;1055841;28;20293;-78
2022/06/23 03:03:51;;;;;;;14.20;12.30;;;;;;;13.91;94.50;101119.31;1059805;28;20047;-78
2022/06/23 03:04:29;;;;;;;17.30;12.70;;;;;;;13.92;94.35;101115.59;1055877;28;20298;-78
2022/06/23 03:05:07;;;;;;;16.52;12.38;;;;;;;13.90;95.02;101123.03;1059766;28;20304;-78
2022/06/23 03:05:51;;;;;;;16.95;11.43;;;;;;;13.90;94.34;101116.88;1063200;27;20379;-78
2022/06/23 03:06:33;;;;;;;18.23;11.32;;;;;;;13.93;94.73;101121.75;1055752;28;20047;-78
2022/06/23 03:07:35;;;;;;;13.45;12.02;;;;;;;13.99;94.27;101114.69;1064535;27;20295;-78
2022/06/23 03:08:17;;;;;;;16.55;11.15;;;;;;;14.02;93.73;101119.56;1061749;27;20293;-78
2022/06/23 03:08:58;;;;;;;12.77;11.35;;;;;;;13.98;94.13;101118.41;1064369;27;20296;-78
2022/06/23 03:09:45;;;;;;;14.85;11.45;;;;;;;13.99;94.60;101120.03;1059704;27;20293;-78
2022/06/23 03:10:29;;;;;;;15.40;10.18;;;;;;;13.90;93.91;101122.22;1060272;27;20736;-78
2022/06/23 03:11:03;;;;;;;16.75;11.98;;;;;;;13.96;94.24;101121.28;1059138;28;20303;-78
2022/06/23 03:11:54;;;;;;;15.43;11.95;;;;;;;13.98;94.20;101129.13;1060393;27;20308;-78
2022/06/23 03:12:30;;;;;;;14.25;11.50;;;;;;;13.94;93.88;101115.34;1056855;28;20301;-78
2022/06/23 03:13:23;;;;;;;12.80;11.45;;;;;;;13.85;93.91;101109.53;1056746;28;20043;-78
2022/06/23 03:13:57;;;;;;;13.25;11.55;;;;;;;13.93;93.82;101121.75;1057177;27;20300;-78
2022/06/23 03:14:32;;;;;;;18.85;12.15;;;;;;;13.91;93.91;101118.50;1057150;27;20879;-78